Meridian Naval Air Station Meridian US
ICAO: KNMM
IATA: NMM
Category: Medium
Scheduled Services: No

Elevation: 316 ft
TransAlt. 18000 ft.

Airport Communications:
APP:119.2
ATIS:27.32
CLNC DEL:30.1
DEP:124.8
MC CAIN GND:33.64
BASE OPS:35.22
PMSV METRO:31.24
MC CAIN TWR:126.2

KNMM Zoom In..

Runways:

(A) RW 01L length 8003 ft width 200 ft
---- / hdg 8

(B) RW 01R length 8001 ft width 200 ft
---- / hdg 8

(C) RW 10 length 6402 ft width 200 ft
---- / hdg 98

(D) RW 19L length 8001 ft width 200 ft
ILS 109.70 / hdg 188

(E) RW 19R length 8003 ft width 200 ft
---- / hdg 188

(F) RW 28 length 6402 ft width 200 ft
---- / hdg 278

Location; KNMM
Day. 19 / Time. 02.56 Zulu
* Altimeter: 29.95
* Temperature: 24° c. 75.2°f.
* Wind from: 230° Speed 03 kn.
Dewpoint: 23° c.
Visibility: 10 Statute Miles.
Clouds: Broken 18000 ft.
Clouds: Overcast 25000 ft.
Conditions: Cumulonimbus.

KNMM 190256Z 23003KT 10SM BKN180 OVC250 24/23 A2995 RMK AO2 RAE31 TSE12 SLP147 OCNL LTGIC DSNT NE CB DSNT NE T2 SET P0002 60017 T02440233 50014


Wind From 230°
Speed 03 kn.

 
 
jpsmedia.com for Web Design worldairports.se 2018   terms of use